KJFK/JFK METAR and TAF weather

Enter ICAO airport designator
Station Type Date Time Source
KJFK METAR 2018/12/10 07:51 UTC NOAA

KJFK 100751Z 36008KT 10SM SCT250 M02/M07 A3012 RMK AO2 SLP199 T10221072


Station Type Date Time Source
KJFK Decoded METAR 2018/12/10 07:51 UTC NOAA

KENNEDY INTERNATIONAL AIRPORT , NY, United States (KJFK) 40-38N 073-46W 9M
Dec 10, 2018 - 02:51 AM EST / 2018.12.10 0751 UTC
Wind: from the N (360 degrees) at 9 MPH (8 KT):0
Visibility: 10 mile(s):0
Sky conditions: partly cloudy
Temperature: 28.0 F (-2.2 C)
Windchill: 19 F (-7 C):1
Dew Point: 19.0 F (-7.2 C)
Relative Humidity: 68%
Pressure (altimeter): 30.12 in. Hg (1019 hPa)
ob: KJFK 100751Z 36008KT 10SM SCT250 M02/M07 A3012 RMK AO2 SLP199 T10221072
cycle: 8

Station Type Date Time Source
KJFK TAF 2018/12/10 08:39 UTC NOAA

TAF
AMD KJFK 100830Z 1008/1112 36007KT P6SM SCT250
FM101300 36011KT P6SM SKC
FM102000 36009KT P6SM SKC
FM110000 01006KT P6SM SKC
FM110600 01003KT P6SM SKC


Example: see airport list